Koyo Maru — JI3710 — position and weather

sailwx.info

Track history (hours):
 
Tides and Currents Weather Stations Pressure Air Temp Water Temp Dewpoint Dewpoint Depression Visibility Wind Speed Wind Dir Waves Ship Positions

Koyo Maru

Last reported at 2016-May-31 03:33 UTC. Time now 2016-May-31 04:04 UTC.
Position N 34°35' E 135°26'.

Length 125 m; draft 6 m.

Type: Cargo ship. MMSI: 431401953.

Date/timePositionNaut miles runAvg speedWind from/ knotsBaromVisibWave heightAir tempDewpointWater temp
2016-May-31 03:33N 34°35' E 135°26'0 0.0
2016-May-31 02:33N 34°35' E 135°26'0 0.0
2016-May-31 01:27N 34°35' E 135°26'0 0.0
2016-May-31 00:33N 34°35' E 135°26'0 0.0
2016-May-30 23:33N 34°35' E 135°26'0 0.0
2016-May-30 22:33N 34°35' E 135°26'6 6.3
2016-May-30 21:33N 34°35' E 135°18'0 0.1
2016-May-30 20:28N 34°35' E 135°18'0 0.0
2016-May-30 19:28N 34°35' E 135°18'1212.8
2016-May-30 18:33N 34°35' E 135°04'  
2016-May-24 12:32N 34°02' E 135°00'1616.5
2016-May-24 11:33N 34°19' E 134°59'1616.3
2016-May-24 10:33N 34°30' E 135°13'1211.6
2016-May-24 09:33N 34°35' E 135°26'0 0.0
2016-May-24 08:13N 34°35' E 135°26'0 0.0
2016-May-24 07:31N 34°35' E 135°26'0 0.0
2016-May-24 06:31N 34°35' E 135°26'0 0.0
2016-May-24 05:31N 34°35' E 135°26'0 0.0
2016-May-24 04:31N 34°35' E 135°26'0 0.0
2016-May-24 03:31N 34°35' E 135°26'0 0.0
2016-May-24 02:31N 34°35' E 135°26'0 0.0
2016-May-24 01:31N 34°35' E 135°26'0 0.0
2016-May-24 00:25N 34°35' E 135°26'0 0.0
2016-May-23 23:13N 34°35' E 135°26'2 3.6
2016-May-23 22:33N 34°36' E 135°23'5 4.8
2016-May-23 21:32N 34°35' E 135°18'0 0.0
2016-May-23 20:32N 34°35' E 135°18'0 0.0
2016-May-23 19:32N 34°35' E 135°18'6 6.6
2016-May-23 18:33N 34°34' E 135°10'  
2016-May-21 07:29N 34°37' E 135°00'1617.2
2016-May-21 06:33N 34°37' E 135°19'5 5.0
2016-May-21 05:30N 34°35' E 135°26'0 0.0
2016-May-21 04:30N 34°35' E 135°26'  
Track history (hours):
 
Tides and Currents Weather Stations Pressure Air Temp Water Temp Dewpoint Dewpoint Depression Visibility Wind Speed Wind Dir Waves Ship Positions

Koyo Maru

Last reported at 2016-May-31 03:33 UTC. Time now 2016-May-31 04:04 UTC.
Position N 34°35' E 135°26'.

Length 125 m; draft 6 m.

Type: Cargo ship. MMSI: 431401953.

Date/timePositionNaut miles runAvg speedWind from/ knotsBaromVisibWave heightAir tempDewpointWater temp
2016-May-31 03:33N 34°35' E 135°26'0 0.0
2016-May-31 02:33N 34°35' E 135°26'0 0.0
2016-May-31 01:27N 34°35' E 135°26'0 0.0
2016-May-31 00:33N 34°35' E 135°26'0 0.0
2016-May-30 23:33N 34°35' E 135°26'0 0.0
2016-May-30 22:33N 34°35' E 135°26'6 6.3
2016-May-30 21:33N 34°35' E 135°18'0 0.1
2016-May-30 20:28N 34°35' E 135°18'0 0.0
2016-May-30 19:28N 34°35' E 135°18'1212.8
2016-May-30 18:33N 34°35' E 135°04'  
2016-May-24 12:32N 34°02' E 135°00'1616.5
2016-May-24 11:33N 34°19' E 134°59'1616.3
2016-May-24 10:33N 34°30' E 135°13'1211.6
2016-May-24 09:33N 34°35' E 135°26'0 0.0
2016-May-24 08:13N 34°35' E 135°26'0 0.0
2016-May-24 07:31N 34°35' E 135°26'0 0.0
2016-May-24 06:31N 34°35' E 135°26'0 0.0
2016-May-24 05:31N 34°35' E 135°26'0 0.0
2016-May-24 04:31N 34°35' E 135°26'0 0.0
2016-May-24 03:31N 34°35' E 135°26'0 0.0
2016-May-24 02:31N 34°35' E 135°26'0 0.0
2016-May-24 01:31N 34°35' E 135°26'0 0.0
2016-May-24 00:25N 34°35' E 135°26'0 0.0
2016-May-23 23:13N 34°35' E 135°26'2 3.6
2016-May-23 22:33N 34°36' E 135°23'5 4.8
2016-May-23 21:32N 34°35' E 135°18'0 0.0
2016-May-23 20:32N 34°35' E 135°18'0 0.0
2016-May-23 19:32N 34°35' E 135°18'6 6.6
2016-May-23 18:33N 34°34' E 135°10'  
2016-May-21 07:29N 34°37' E 135°00'1617.2
2016-May-21 06:33N 34°37' E 135°19'5 5.0
2016-May-21 05:30N 34°35' E 135°26'0 0.0
2016-May-21 04:30N 34°35' E 135°26'  

Dump ship's entire track history